Time;durP1;ratioP1;P1;durP2;ratioP2;P2;SDS_P1;SDS_P2;PMS_P1;PMS_P2;Temp;Humidity;BMP_temperature;BMP_pressure;BME280_temperature;BME280_humidity;BME280_pressure;Samples;Min_cycle;Max_cycle;Signal;HPM_P1;HPM_P2
2021/10/19 00:00:17;;;;;;;18.77;8.90;;;;;;;6.57;77.52;100712.31;5074675;28;20178;-62
2021/10/19 00:02:51;;;;;;;15.85;8.38;;;;;;;6.67;77.91;100721.09;5075862;28;20144;-62
2021/10/19 00:05:23;;;;;;;16.45;8.27;;;;;;;6.49;77.51;100736.56;5075697;28;20044;-62
2021/10/19 00:07:56;;;;;;;16.52;8.43;;;;;;;6.34;77.81;100707.28;5075586;28;20055;-62
2021/10/19 00:10:30;;;;;;;16.45;8.30;;;;;;;6.63;78.36;100742.94;5075622;28;20082;-62
2021/10/19 00:13:02;;;;;;;13.43;6.90;;;;;;;6.77;78.48;100734.91;5075510;28;20045;-62
2021/10/19 00:15:35;;;;;;;13.20;8.00;;;;;;;6.88;78.18;100733.56;5075493;28;20048;-62
2021/10/19 00:18:07;;;;;;;12.38;6.93;;;;;;;7.01;78.36;100744.13;5075364;28;20486;-62
2021/10/19 00:20:39;;;;;;;13.70;7.85;;;;;;;7.01;77.86;100755.94;5076001;28;20436;-63
2021/10/19 00:23:09;;;;;;;16.30;7.50;;;;;;;7.08;78.14;100757.88;5075277;28;20040;-63
2021/10/19 00:25:42;;;;;;;9.25;4.75;;;;;;;7.10;78.22;100749.47;5075275;28;20047;-63
2021/10/19 00:28:11;;;;;;;11.10;6.05;;;;;;;7.09;78.03;100754.50;5075424;28;20071;-62
2021/10/19 00:30:44;;;;;;;11.45;6.45;;;;;;;7.06;77.85;100754.41;5075472;28;20482;-63
2021/10/19 00:33:17;;;;;;;12.18;6.65;;;;;;;7.06;78.00;100749.34;5075139;28;20049;-63
2021/10/19 00:35:46;;;;;;;10.82;6.22;;;;;;;7.15;77.85;100752.19;5075406;28;20397;-63
2021/10/19 00:38:18;;;;;;;;;;;;;;;7.17;77.69;100755.63;5075661;28;20052;-63
2021/10/19 00:40:53;;;;;;;11.15;5.70;;;;;;;7.23;77.34;100760.84;5074863;28;19927;-63
2021/10/19 00:43:26;;;;;;;13.38;5.97;;;;;;;7.16;77.47;100753.88;5075128;28;20394;-63
2021/10/19 00:45:59;;;;;;;10.90;5.70;;;;;;;7.17;77.35;100751.41;5074908;28;20083;-63
2021/10/19 00:48:32;;;;;;;13.35;6.28;;;;;;;7.10;77.43;100751.16;5074769;28;20138;-62
2021/10/19 00:51:02;;;;;;;11.50;5.93;;;;;;;7.00;77.67;100754.22;5075062;28;20134;-62
2021/10/19 00:53:34;;;;;;;9.00;5.68;;;;;;;7.01;77.48;100755.94;5075249;28;20456;-62
2021/10/19 00:56:09;;;;;;;9.45;5.60;;;;;;;7.01;77.45;100751.72;5074978;28;20131;-62
2021/10/19 00:58:40;;;;;;;10.25;5.50;;;;;;;7.00;77.20;100749.16;5074617;28;20052;-62
2021/10/19 01:01:13;;;;;;;10.05;5.70;;;;;;;6.82;77.19;100746.03;5074545;28;20041;-62
2021/10/19 01:03:46;;;;;;;11.98;5.75;;;;;;;6.72;77.72;100755.91;5074755;28;20489;-63
2021/10/19 01:06:18;;;;;;;11.25;5.18;;;;;;;6.75;77.39;100750.94;5074460;28;20102;-63
2021/10/19 01:08:51;;;;;;;10.27;5.72;;;;;;;6.58;77.67;100756.28;5074354;28;20285;-62
2021/10/19 01:11:25;;;;;;;8.43;5.32;;;;;;;6.57;77.97;100760.50;5074355;28;20048;-62
2021/10/19 01:13:57;;;;;;;11.48;5.88;;;;;;;6.39;77.70;100757.34;5074437;28;20047;-62
2021/10/19 01:16:27;;;;;;;12.77;5.47;;;;;;;6.26;78.45;100760.31;5074581;28;20406;-61
2021/10/19 01:19:00;;;;;;;12.95;6.68;;;;;;;6.27;78.64;100764.53;5074150;28;20086;-61
2021/10/19 01:21:34;;;;;;;11.45;6.28;;;;;;;6.25;78.46;100768.72;5074226;28;20102;-62
2021/10/19 01:24:06;;;;;;;13.25;6.30;;;;;;;6.28;78.44;100763.75;5074077;28;20110;-62
2021/10/19 01:26:39;;;;;;;18.25;9.18;;;;;;;6.34;78.19;100763.06;5074387;28;20166;-62
2021/10/19 01:29:11;;;;;;;15.15;8.68;;;;;;;6.33;78.19;100767.31;5074625;28;20438;-62
2021/10/19 01:31:47;;;;;;;13.60;8.82;;;;;;;6.30;77.96;100782.41;5074015;28;20045;-63
2021/10/19 01:34:20;;;;;;;16.95;7.85;;;;;;;6.30;78.03;100787.47;5074587;28;20086;-63
2021/10/19 01:36:54;;;;;;;14.43;8.05;;;;;;;6.24;77.74;100782.19;5074250;28;20426;-63
2021/10/19 01:39:23;;;;;;;17.48;7.90;;;;;;;6.15;77.94;100771.72;5073903;28;20056;-62
2021/10/19 01:41:53;;;;;;;17.67;8.02;;;;;;;5.93;77.58;100756.59;5073806;28;20129;-62
2021/10/19 01:44:22;;;;;;;12.77;7.07;;;;;;;5.69;78.16;100753.16;5073657;28;20043;-62
2021/10/19 01:46:57;;;;;;;15.68;7.72;;;;;;;5.60;78.18;100752.81;5073780;28;20131;-61
2021/10/19 01:49:27;;;;;;;14.63;7.75;;;;;;;5.55;78.52;100749.25;5074087;28;20482;-62
2021/10/19 01:52:01;;;;;;;13.15;7.43;;;;;;;5.59;78.45;100751.13;5073230;28;20048;-61
2021/10/19 01:54:33;;;;;;;14.07;7.55;;;;;;;5.67;78.61;100752.25;5074086;28;20052;-61
2021/10/19 01:57:06;;;;;;;13.25;6.80;;;;;;;5.58;77.79;100744.31;5073936;28;20456;-61
2021/10/19 01:59:38;;;;;;;14.52;6.47;;;;;;;5.48;77.96;100737.19;5072390;28;20053;-61
2021/10/19 02:02:10;;;;;;;12.43;7.43;;;;;;;5.45;78.64;100749.75;5073646;28;20127;-62
2021/10/19 02:04:43;;;;;;;13.45;7.78;;;;;;;5.55;78.94;100759.38;5073555;28;20048;-61
2021/10/19 02:07:17;;;;;;;13.52;7.63;;;;;;;5.63;79.17;100753.81;5073583;28;20048;-61
2021/10/19 02:09:49;;;;;;;15.63;7.50;;;;;;;5.72;79.27;100753.28;5073791;28;20123;-61
2021/10/19 02:12:21;;;;;;;12.77;7.43;;;;;;;5.83;78.88;100741.88;5074027;28;20048;-61
2021/10/19 02:14:53;;;;;;;12.00;6.85;;;;;;;5.68;79.24;100751.44;5073737;28;20056;-63
2021/10/19 02:17:25;;;;;;;14.57;7.25;;;;;;;5.64;79.27;100754.69;5073459;28;20049;-63
2021/10/19 02:19:55;;;;;;;13.35;7.50;;;;;;;5.78;79.24;100753.50;5073442;28;20033;-63
2021/10/19 02:22:29;;;;;;;15.52;8.50;;;;;;;5.98;80.05;100752.53;5073336;28;20044;-63
2021/10/19 02:24:59;;;;;;;14.35;8.13;;;;;;;6.08;80.03;100754.59;5073323;28;20098;-63
2021/10/19 02:27:31;;;;;;;12.82;7.88;;;;;;;6.14;79.92;100748.88;5073909;28;20537;-63
2021/10/19 02:30:00;;;;;;;12.75;7.63;;;;;;;6.00;79.77;100758.53;5073357;28;20051;-62
2021/10/19 02:32:34;;;;;;;16.83;8.90;;;;;;;5.77;80.21;100766.97;5073304;28;20044;-61
2021/10/19 02:35:04;;;;;;;13.65;8.13;;;;;;;5.84;80.35;100763.84;5073344;28;20475;-62
2021/10/19 02:37:38;;;;;;;17.70;8.63;;;;;;;5.93;80.52;100754.91;5073558;28;20118;-62
2021/10/19 02:40:09;;;;;;;15.00;8.52;;;;;;;5.89;79.97;100744.63;5073256;28;20048;-62
2021/10/19 02:42:42;;;;;;;16.60;8.38;;;;;;;5.81;80.32;100746.84;5073427;28;20509;-61
2021/10/19 02:45:12;;;;;;;19.67;9.65;;;;;;;5.87;80.33;100743.72;5073176;28;20106;-63
2021/10/19 02:47:42;;;;;;;13.10;7.75;;;;;;;5.76;79.96;100745.81;5073269;28;20132;-63
2021/10/19 02:50:14;;;;;;;;;;;;;;;5.62;79.68;100743.59;5073526;28;20122;-63
2021/10/19 02:52:48;;;;;;;14.73;7.78;;;;;;;5.52;79.58;100749.19;5073426;28;19942;-63
2021/10/19 02:55:17;;;;;;;16.45;8.85;;;;;;;5.55;79.94;100744.19;5073370;28;20127;-62
2021/10/19 02:57:50;;;;;;;13.48;8.40;;;;;;;5.68;79.35;100746.38;5073325;28;20394;-63
2021/10/19 03:00:19;;;;;;;13.13;8.30;;;;;;;5.61;79.26;100750.38;5073061;28;20045;-63
2021/10/19 03:02:51;;;;;;;16.30;9.32;;;;;;;5.58;79.14;100755.31;5072911;28;20052;-63
2021/10/19 03:05:21;;;;;;;17.05;8.75;;;;;;;5.46;78.92;100754.00;5076571;28;20051;-62
2021/10/19 03:07:53;;;;;;;15.52;8.57;;;;;;;5.31;78.94;100755.16;5076972;28;20509;-61
2021/10/19 03:10:25;;;;;;;17.70;8.38;;;;;;;5.22;78.85;100759.88;5058860;28;20067;-61
2021/10/19 03:13:01;;;;;;;14.93;8.18;;;;;;;5.18;78.98;100759.72;5076660;28;20053;-62
2021/10/19 03:15:33;;;;;;;14.50;8.07;;;;;;;5.09;79.57;100756.81;5076643;28;20127;-62
2021/10/19 03:18:05;;;;;;;15.23;8.75;;;;;;;5.19;79.01;100749.63;5076565;28;20054;-62
2021/10/19 03:20:35;;;;;;;15.57;8.48;;;;;;;5.22;79.55;100754.81;5076596;28;20053;-61
2021/10/19 03:23:08;;;;;;;16.67;8.52;;;;;;;5.26;78.91;100741.47;5076608;28;20071;-62
2021/10/19 03:25:41;;;;;;;15.10;8.52;;;;;;;5.34;79.11;100737.56;5076775;28;20044;-62
2021/10/19 03:28:13;;;;;;;13.55;8.38;;;;;;;5.21;79.29;100745.50;5076371;28;20091;-62
2021/10/19 03:30:45;;;;;;;17.48;9.02;;;;;;;5.32;79.13;100740.84;5076589;28;20048;-63
2021/10/19 03:33:18;;;;;;;15.80;8.55;;;;;;;5.31;78.88;100752.63;5076278;28;20087;-63
2021/10/19 03:35:50;;;;;;;17.17;8.57;;;;;;;5.19;78.75;100751.28;5076239;28;20094;-62
2021/10/19 03:38:24;;;;;;;17.58;9.32;;;;;;;5.27;79.48;100752.47;5076191;28;20072;-62
2021/10/19 03:40:56;;;;;;;16.27;8.80;;;;;;;5.15;79.04;100752.00;5076441;28;20510;-62
2021/10/19 03:43:26;;;;;;;14.75;7.97;;;;;;;5.16;79.11;100744.44;5076302;28;20051;-62
2021/10/19 03:45:55;;;;;;;15.50;8.18;;;;;;;5.17;79.04;100736.06;5076035;28;20082;-61
2021/10/19 03:48:25;;;;;;;13.73;7.50;;;;;;;5.10;78.78;100734.13;5076241;28;20131;-63
2021/10/19 03:50:57;;;;;;;14.52;7.75;;;;;;;5.11;78.74;100735.81;5075934;28;20076;-63
2021/10/19 03:53:31;;;;;;;14.25;7.85;;;;;;;5.15;78.75;100742.75;5076170;28;20048;-62
2021/10/19 03:56:03;;;;;;;14.27;8.20;;;;;;;5.20;78.49;100741.25;5075887;28;20118;-63
2021/10/19 03:58:35;;;;;;;15.93;7.80;;;;;;;5.17;78.49;100741.13;5075160;28;20456;-63
2021/10/19 04:01:08;;;;;;;13.57;6.70;;;;;;;5.17;78.15;100746.19;5076082;28;20059;-63
2021/10/19 04:03:40;;;;;;;13.05;6.72;;;;;;;5.28;78.14;100746.56;5075687;28;20055;-63
2021/10/19 04:06:12;;;;;;;12.95;6.13;;;;;;;5.34;78.08;100757.81;5075993;28;20135;-62
2021/10/19 04:08:49;;;;;;;11.50;5.75;;;;;;;5.31;78.33;100752.63;5075568;28;20055;-62
2021/10/19 04:11:19;;;;;;;11.85;5.75;;;;;;;5.21;78.20;100750.56;5075604;28;20048;-62
2021/10/19 04:13:51;;;;;;;11.57;5.57;;;;;;;5.27;78.29;100755.00;5075392;28;20052;-62
2021/10/19 04:16:23;;;;;;;12.65;6.10;;;;;;;5.34;78.29;100757.81;5075624;28;20056;-62
2021/10/19 04:18:59;;;;;;;10.88;5.70;;;;;;;5.39;78.13;100757.97;5075419;28;20135;-61
2021/10/19 04:21:31;;;;;;;11.43;5.72;;;;;;;5.32;78.28;100764.50;5075696;28;20461;-63
2021/10/19 04:24:05;;;;;;;12.80;6.63;;;;;;;5.37;78.12;100749.47;5075299;28;20045;-63
2021/10/19 04:26:38;;;;;;;13.50;7.50;;;;;;;5.46;78.02;100741.34;5075603;28;20044;-63
2021/10/19 04:29:14;;;;;;;19.05;10.00;;;;;;;5.47;78.20;100736.31;5075671;28;20052;-62
2021/10/19 04:31:46;;;;;;;13.30;7.43;;;;;;;5.38;78.10;100731.78;5075143;28;20098;-63
2021/10/19 04:34:19;;;;;;;14.45;7.68;;;;;;;5.29;78.16;100735.66;5075145;28;20098;-63
2021/10/19 04:36:51;;;;;;;14.77;8.00;;;;;;;5.19;78.22;100747.09;5075614;28;20044;-63
2021/10/19 04:39:22;;;;;;;15.23;7.38;;;;;;;4.99;77.81;100747.16;5075275;28;20060;-62
2021/10/19 04:41:55;;;;;;;15.30;8.40;;;;;;;5.01;78.48;100743.03;5074969;28;20135;-63
2021/10/19 04:44:27;;;;;;;16.52;8.32;;;;;;;4.99;78.56;100753.06;5074863;28;20127;-62
2021/10/19 04:47:00;;;;;;;17.35;8.60;;;;;;;4.99;78.32;100758.13;5074840;28;20131;-62
2021/10/19 04:49:38;;;;;;;14.27;8.55;;;;;;;5.03;78.67;100747.34;5075015;28;20051;-62
2021/10/19 04:52:10;;;;;;;15.77;8.73;;;;;;;5.14;78.38;100751.13;5075033;28;20410;-61
2021/10/19 04:54:40;;;;;;;15.82;8.82;;;;;;;5.23;78.22;100746.41;5074677;28;20079;-62
2021/10/19 04:57:13;;;;;;;15.40;8.55;;;;;;;5.34;78.47;100750.22;5074634;28;20120;-62
2021/10/19 04:59:45;;;;;;;15.77;8.55;;;;;;;5.33;78.50;100723.16;5073850;28;20051;-62
2021/10/19 05:02:18;;;;;;;19.63;8.55;;;;;;;5.41;77.83;100736.97;5074878;28;20064;-63
2021/10/19 05:04:52;;;;;;;15.98;8.90;;;;;;;5.41;78.07;100726.84;5074703;28;20374;-63
2021/10/19 05:07:24;;;;;;;11.45;6.60;;;;;;;5.42;78.43;100723.50;5074434;28;20549;-63
2021/10/19 05:09:58;;;;;;;14.30;7.82;;;;;;;5.49;78.23;100728.81;5074406;28;20041;-62
2021/10/19 05:12:31;;;;;;;14.68;7.40;;;;;;;5.55;77.71;100734.94;5074572;28;20060;-63
2021/10/19 05:15:04;;;;;;;14.60;7.18;;;;;;;5.56;78.10;100735.81;5056843;28;20462;-63
2021/10/19 05:17:40;;;;;;;15.07;7.43;;;;;;;5.55;77.35;100736.59;5074719;28;20048;-63
2021/10/19 05:20:13;;;;;;;15.18;7.75;;;;;;;5.51;77.73;100747.44;5074504;28;20072;-63
2021/10/19 05:22:45;;;;;;;15.57;8.70;;;;;;;5.42;77.52;100746.28;5074209;28;20480;-62
2021/10/19 05:25:16;;;;;;;17.60;9.35;;;;;;;5.45;77.67;100748.06;5074328;28;20397;-63
2021/10/19 05:27:48;;;;;;;21.45;9.65;;;;;;;5.56;78.03;100751.88;5073709;28;20513;-62
2021/10/19 05:30:19;;;;;;;16.85;9.32;;;;;;;5.55;77.44;100749.25;5073960;28;20059;-62
2021/10/19 05:32:48;;;;;;;14.38;8.45;;;;;;;5.54;77.20;100766.16;5074641;28;20111;-63
2021/10/19 05:35:18;;;;;;;13.85;7.10;;;;;;;5.46;77.79;100771.72;5073923;28;20045;-63
2021/10/19 05:37:51;;;;;;;17.02;8.20;;;;;;;5.53;77.28;100771.13;5073863;28;20056;-62
2021/10/19 05:40:26;;;;;;;16.40;8.60;;;;;;;5.43;77.75;100775.88;5073807;28;20086;-62
2021/10/19 05:42:58;;;;;;;19.27;9.48;;;;;;;5.37;78.19;100780.69;5073861;28;20577;-63
2021/10/19 05:45:28;;;;;;;24.63;14.50;;;;;;;5.27;78.37;100783.69;5073755;28;20049;-63
2021/10/19 05:48:01;;;;;;;34.90;16.55;;;;;;;5.41;78.61;100787.59;5073646;28;20131;-63
2021/10/19 05:50:31;;;;;;;36.30;17.05;;;;;;;5.59;78.03;100778.97;5074182;28;20079;-62
2021/10/19 05:53:04;;;;;;;19.83;9.82;;;;;;;5.78;77.99;100794.03;5074034;28;20139;-62
2021/10/19 05:55:36;;;;;;;16.20;8.65;;;;;;;5.93;78.34;100797.13;5073658;28;20052;-62
2021/10/19 05:58:10;;;;;;;16.90;8.23;;;;;;;6.00;78.37;100806.66;5073957;28;20387;-63
2021/10/19 06:00:51;;;;;;;13.65;7.63;;;;;;;5.97;78.21;100791.38;5056000;28;20445;-62
2021/10/19 06:03:20;;;;;;;;;;;;;;;6.15;77.87;100804.69;5074281;28;20121;-61
2021/10/19 06:05:50;;;;;;;;;;;;;;;6.24;77.86;100811.75;5074125;28;20354;-62
2021/10/19 06:08:25;;;;;;;15.98;9.30;;;;;;;6.32;77.81;100806.13;5073519;28;19924;-62
2021/10/19 06:10:56;;;;;;;15.88;8.38;;;;;;;6.42;77.50;100818.31;5073646;28;20131;-62
2021/10/19 06:13:25;;;;;;;15.25;8.45;;;;;;;6.53;77.44;100817.00;5073482;28;20127;-62
2021/10/19 06:15:58;;;;;;;13.88;7.82;;;;;;;6.51;77.79;100815.22;5073707;28;20045;-63
2021/10/19 06:18:28;;;;;;;20.65;9.15;;;;;;;6.41;77.30;100803.03;5073729;28;20440;-62
2021/10/19 06:21:01;;;;;;;18.52;9.82;;;;;;;6.44;77.78;100804.00;5073688;28;20473;-63
2021/10/19 06:23:34;;;;;;;14.95;8.82;;;;;;;6.30;77.76;100776.47;5073279;28;20470;-62
2021/10/19 06:26:07;;;;;;;20.00;9.98;;;;;;;6.46;77.79;100799.84;5073611;28;20540;-63
2021/10/19 06:28:39;;;;;;;20.45;10.68;;;;;;;6.38;77.76;100796.19;5073584;28;20139;-62
2021/10/19 06:31:08;;;;;;;19.27;10.48;;;;;;;6.48;78.25;100803.28;5073604;28;20518;-63
2021/10/19 06:33:38;;;;;;;16.83;9.25;;;;;;;6.65;78.21;100804.72;5073578;28;20079;-63
2021/10/19 06:36:07;;;;;;;17.63;8.75;;;;;;;6.64;77.70;100809.75;5073519;28;20063;-62
2021/10/19 06:38:43;;;;;;;15.07;9.35;;;;;;;6.58;77.67;100802.78;5076095;28;20067;-62
2021/10/19 06:41:17;;;;;;;17.02;9.25;;;;;;;6.49;77.91;100794.88;5077411;28;20066;-62
2021/10/19 06:43:46;;;;;;;14.88;9.55;;;;;;;6.55;77.99;100795.06;5076964;28;20058;-62
2021/10/19 06:46:24;;;;;;;17.05;9.77;;;;;;;6.61;77.91;100795.28;5076890;28;20044;-62
2021/10/19 06:48:53;;;;;;;14.68;9.25;;;;;;;6.59;77.76;100789.31;5077118;28;20079;-62
2021/10/19 06:51:22;;;;;;;17.92;9.52;;;;;;;6.61;77.52;100792.75;5077420;28;20044;-62
2021/10/19 06:53:54;;;;;;;14.52;8.32;;;;;;;6.60;78.24;100798.63;5077082;28;20032;-62
2021/10/19 06:56:25;;;;;;;15.55;8.93;;;;;;;6.66;78.13;100801.38;5076859;28;20056;-62
2021/10/19 06:58:58;;;;;;;16.30;9.25;;;;;;;6.75;78.22;100806.75;5076719;28;20493;-62
2021/10/19 07:01:28;;;;;;;18.00;9.40;;;;;;;6.79;78.22;100806.84;5076757;28;20049;-62
2021/10/19 07:03:57;;;;;;;11.98;7.97;;;;;;;6.95;78.70;100811.59;5076969;28;20037;-62
2021/10/19 07:06:27;;;;;;;13.15;6.90;;;;;;;7.03;78.17;100812.72;5076629;28;20079;-63
2021/10/19 07:08:56;;;;;;;13.73;7.32;;;;;;;7.18;78.53;100800.47;5076571;28;20047;-62
2021/10/19 07:11:27;;;;;;;13.98;6.60;;;;;;;7.29;78.68;100804.22;5076795;28;20462;-62
2021/10/19 07:13:57;;;;;;;14.60;7.13;;;;;;;7.39;78.61;100791.81;5076550;28;20486;-62
2021/10/19 07:16:26;;;;;;;11.02;7.20;;;;;;;7.24;78.07;100766.00;5076725;28;20102;-62
2021/10/19 07:18:57;;;;;;;12.32;6.03;;;;;;;7.50;77.90;100802.31;5076477;28;20076;-62
2021/10/19 07:21:26;;;;;;;13.43;6.32;;;;;;;7.42;78.01;100791.94;5076882;28;20470;-62
2021/10/19 07:23:55;;;;;;;13.20;6.00;;;;;;;7.48;78.51;100791.25;5076512;28;20527;-62
2021/10/19 07:26:27;;;;;;;11.73;6.05;;;;;;;7.54;78.72;100776.19;5076331;28;20036;-62
2021/10/19 07:28:59;;;;;;;10.55;6.03;;;;;;;7.75;78.24;100786.94;5076560;28;20049;-62
2021/10/19 07:31:32;;;;;;;12.18;6.50;;;;;;;7.88;78.33;100778.88;5076549;28;20048;-62
2021/10/19 07:34:02;;;;;;;10.43;6.25;;;;;;;8.01;77.68;100780.91;5077007;28;20040;-62
2021/10/19 07:36:37;;;;;;;11.52;6.20;;;;;;;7.98;78.36;100769.81;5076118;28;20516;-62
2021/10/19 07:39:09;;;;;;;10.55;6.35;;;;;;;7.91;78.07;100758.63;5076097;28;20050;-62
2021/10/19 07:41:43;;;;;;;14.45;6.53;;;;;;;8.13;78.92;100773.59;5076717;28;20053;-62
2021/10/19 07:44:13;;;;;;;11.13;7.55;;;;;;;8.28;78.47;100775.72;5076032;28;20048;-62
2021/10/19 07:46:42;;;;;;;10.13;6.43;;;;;;;8.39;78.52;100766.69;5076043;28;20165;-62
2021/10/19 07:49:11;;;;;;;11.57;6.82;;;;;;;8.59;78.47;100757.03;5074978;28;20105;-62
2021/10/19 07:51:45;;;;;;;11.50;6.25;;;;;;;8.66;78.94;100759.72;5076013;28;20449;-62
2021/10/19 07:54:17;;;;;;;11.52;5.95;;;;;;;8.68;78.64;100752.16;5075952;28;20494;-62
2021/10/19 07:56:48;;;;;;;10.50;6.13;;;;;;;8.82;78.38;100750.78;5075798;28;20106;-62
2021/10/19 07:59:17;;;;;;;10.10;6.13;;;;;;;8.98;78.34;100757.94;5075863;28;20084;-62
2021/10/19 08:01:47;;;;;;;7.93;4.25;;;;;;;9.21;78.14;100761.84;5075782;28;20047;-63
2021/10/19 08:04:16;;;;;;;9.95;5.30;;;;;;;9.30;77.55;100757.00;5075531;28;20478;-62
2021/10/19 08:06:48;;;;;;;10.35;5.38;;;;;;;9.34;77.96;100761.31;5075754;28;20398;-62
2021/10/19 08:09:21;;;;;;;12.45;6.63;;;;;;;9.48;77.62;100770.94;5074328;28;20131;-62
2021/10/19 08:11:55;;;;;;;12.68;7.15;;;;;;;9.57;78.47;100777.09;5075633;28;20068;-62
2021/10/19 08:14:24;;;;;;;11.98;7.22;;;;;;;9.73;78.32;100763.84;5075445;28;20238;-62
2021/10/19 08:16:54;;;;;;;;;;;;;;;9.92;78.67;100772.69;5075880;28;20067;-62
2021/10/19 08:19:23;;;;;;;12.60;7.43;;;;;;;10.04;78.08;100763.59;5075404;28;20322;-62
2021/10/19 08:21:53;;;;;;;9.02;5.65;;;;;;;10.15;77.56;100794.41;5075224;28;20502;-63
2021/10/19 08:24:28;;;;;;;13.40;8.13;;;;;;;10.41;77.27;100797.47;5075145;28;20555;-62
2021/10/19 08:27:03;;;;;;;14.95;8.80;;;;;;;10.40;76.65;100791.50;5075280;28;20386;-62
2021/10/19 08:29:32;;;;;;;9.02;6.20;;;;;;;10.38;76.78;100777.00;5075093;28;20557;-62
2021/10/19 08:32:06;;;;;;;15.23;7.22;;;;;;;10.19;76.12;100746.88;5075132;28;20118;-62
2021/10/19 08:34:36;;;;;;;9.80;5.90;;;;;;;10.38;75.83;100788.06;5075362;28;20155;-62
2021/10/19 08:37:05;;;;;;;;;;;;;;;10.69;76.75;100784.34;5075821;28;20405;-62
2021/10/19 08:39:35;;;;;;;10.18;5.60;;;;;;;10.88;75.87;100777.81;5075000;28;19930;-62
2021/10/19 08:42:06;;;;;;;10.50;6.50;;;;;;;11.24;76.00;100796.25;5075018;28;20039;-62
2021/10/19 08:44:36;;;;;;;7.68;5.00;;;;;;;11.59;75.30;100801.88;5074913;28;20060;-63
2021/10/19 08:47:06;;;;;;;9.52;5.53;;;;;;;11.68;75.12;100804.56;5074947;28;20097;-62
2021/10/19 08:49:36;;;;;;;8.82;5.03;;;;;;;11.90;74.13;100797.16;5074719;28;20049;-62
2021/10/19 08:52:05;;;;;;;9.15;4.95;;;;;;;12.00;73.34;100787.91;5074957;28;20486;-63
2021/10/19 08:54:34;;;;;;;11.98;5.18;;;;;;;12.01;72.96;100790.50;5074944;28;20528;-62
2021/10/19 08:57:14;;;;;;;8.45;5.15;;;;;;;12.06;72.24;100798.22;5057002;28;20045;-63
2021/10/19 08:59:48;;;;;;;9.20;5.10;;;;;;;11.78;71.89;100786.78;5074515;28;20540;-62
2021/10/19 09:02:18;;;;;;;10.15;5.90;;;;;;;11.77;72.02;100795.31;5074783;28;20135;-62
2021/10/19 09:04:56;;;;;;;8.48;5.30;;;;;;;11.92;71.95;100795.50;5074363;28;20063;-63
2021/10/19 09:07:28;;;;;;;8.25;5.25;;;;;;;12.01;71.30;100799.88;5074375;28;20128;-62
2021/10/19 09:09:58;;;;;;;8.60;5.45;;;;;;;12.05;71.08;100802.47;5074210;28;20382;-62
2021/10/19 09:12:30;;;;;;;8.63;5.47;;;;;;;12.06;71.05;100793.97;5074143;28;20052;-63
2021/10/19 09:15:06;;;;;;;9.45;5.70;;;;;;;12.17;70.52;100806.00;5074195;28;20044;-62
2021/10/19 09:17:39;;;;;;;10.82;5.65;;;;;;;12.29;70.49;100803.56;5074647;28;20418;-62
2021/10/19 09:20:15;;;;;;;8.82;5.60;;;;;;;12.41;70.24;100798.56;5074390;28;20462;-62
2021/10/19 09:22:59;;;;;;;9.45;5.80;;;;;;;12.64;69.60;100800.50;5074174;28;20215;-63
2021/10/19 09:25:31;;;;;;;9.27;5.78;;;;;;;12.75;68.98;100800.59;5073888;28;20052;-62
2021/10/19 09:28:04;;;;;;;8.25;5.50;;;;;;;12.85;68.61;100781.91;5073881;28;20047;-63
2021/10/19 09:30:39;;;;;;;8.60;5.15;;;;;;;12.96;68.04;100798.19;5074197;28;20127;-63
2021/10/19 09:33:12;;;;;;;10.02;5.85;;;;;;;13.16;68.17;100789.00;5073853;28;20055;-63
2021/10/19 09:35:42;;;;;;;8.88;5.43;;;;;;;13.47;67.75;100792.59;5073753;28;20490;-62
2021/10/19 09:38:15;;;;;;;9.88;5.95;;;;;;;13.50;67.19;100791.75;5073862;28;20506;-63
2021/10/19 09:40:49;;;;;;;8.77;5.90;;;;;;;13.49;66.23;100784.91;5073870;28;20132;-62
2021/10/19 09:43:22;;;;;;;8.95;5.53;;;;;;;13.58;65.72;100783.22;5073337;28;20051;-62
2021/10/19 09:45:55;;;;;;;10.30;5.78;;;;;;;13.75;65.45;100767.94;5074273;28;20044;-63
2021/10/19 09:48:31;;;;;;;9.75;5.90;;;;;;;13.76;65.08;100769.63;5073794;28;20072;-63
2021/10/19 09:51:02;;;;;;;9.77;5.82;;;;;;;13.83;64.83;100763.66;5073701;28;20055;-63
2021/10/19 09:53:35;;;;;;;8.50;5.97;;;;;;;14.03;64.74;100751.78;5073718;28;20402;-63
2021/10/19 09:56:25;;;;;;;8.63;6.07;;;;;;;14.29;64.71;100750.09;5051715;28;20080;-63
2021/10/19 09:58:57;;;;;;;9.70;6.28;;;;;;;14.53;64.06;100763.00;5051596;28;20072;-63
2021/10/19 10:01:27;;;;;;;14.02;6.38;;;;;;;14.62;63.73;100763.00;5051487;28;20055;-63
2021/10/19 10:03:59;;;;;;;10.18;6.22;;;;;;;14.45;62.91;100763.84;5051125;28;20048;-62
2021/10/19 10:06:30;;;;;;;9.82;6.40;;;;;;;14.35;63.16;100762.13;5051154;28;20037;-62
2021/10/19 10:09:00;;;;;;;11.70;6.78;;;;;;;14.35;62.93;100757.84;5051237;28;20037;-63
2021/10/19 10:11:33;;;;;;;9.07;6.70;;;;;;;14.48;62.81;100769.84;5051435;28;20049;-62
2021/10/19 10:14:05;;;;;;;9.90;6.07;;;;;;;14.53;62.32;100752.72;5051160;28;20044;-62
2021/10/19 10:16:46;;;;;;;10.63;6.25;;;;;;;14.84;61.73;100763.00;5051545;28;20072;-63
2021/10/19 10:19:17;;;;;;;10.18;6.00;;;;;;;14.96;61.38;100757.84;5051075;28;20091;-63
2021/10/19 10:21:51;;;;;;;11.48;6.55;;;;;;;14.92;60.81;100761.28;5069201;28;20052;-63
2021/10/19 10:24:30;;;;;;;11.02;6.80;;;;;;;15.05;61.36;100757.81;5073144;28;20127;-63
2021/10/19 10:27:11;;;;;;;8.50;6.05;;;;;;;15.28;60.67;100730.34;5073326;28;20114;-63
2021/10/19 10:29:44;;;;;;;11.88;6.40;;;;;;;15.82;60.47;100753.31;5073526;28;20157;-63
2021/10/19 10:32:27;;;;;;;10.32;6.70;;;;;;;15.87;59.10;100748.16;5073789;28;20139;-63
2021/10/19 10:35:02;;;;;;;15.93;7.03;;;;;;;15.99;58.59;100754.09;5073129;28;20502;-62
2021/10/19 10:37:40;;;;;;;10.80;6.55;;;;;;;16.02;58.06;100748.06;5073618;28;20363;-63
2021/10/19 10:40:27;;;;;;;9.75;6.45;;;;;;;16.05;57.81;100743.75;5073252;28;20049;-63
2021/10/19 10:43:02;;;;;;;11.02;6.57;;;;;;;15.94;57.98;100727.50;5073137;28;20049;-63
2021/10/19 10:45:37;;;;;;;14.35;6.88;;;;;;;15.86;58.33;100711.25;5072998;28;20580;-62
2021/10/19 10:48:07;;;;;;;10.98;6.85;;;;;;;15.98;57.92;100726.63;5073372;28;20049;-62
2021/10/19 10:50:39;;;;;;;10.18;6.65;;;;;;;16.27;58.65;100728.19;5073041;28;20102;-63
2021/10/19 10:53:11;;;;;;;9.93;5.68;;;;;;;16.30;56.48;100728.13;5073122;28;20047;-62
2021/10/19 10:55:45;;;;;;;8.95;4.88;;;;;;;16.17;56.32;100723.94;5073251;28;20090;-63
2021/10/19 10:58:23;;;;;;;6.78;4.45;;;;;;;16.09;55.78;100724.84;5072725;28;20094;-62
2021/10/19 11:00:54;;;;;;;7.97;4.50;;;;;;;16.02;55.05;100709.44;5072911;28;20139;-62
2021/10/19 11:03:24;;;;;;;7.90;4.43;;;;;;;16.01;54.61;100707.72;5072962;28;20463;-62
2021/10/19 11:05:57;;;;;;;7.35;4.68;;;;;;;15.97;54.65;100703.47;5072955;28;20041;-63
2021/10/19 11:08:28;;;;;;;11.77;5.25;;;;;;;16.01;54.52;100700.00;5072701;28;20051;-62
2021/10/19 11:11:07;;;;;;;6.35;4.30;;;;;;;16.00;54.22;100699.13;5073124;28;20040;-63
2021/10/19 11:13:58;;;;;;;7.18;3.95;;;;;;;16.14;53.37;100685.31;5072712;28;20124;-62
2021/10/19 11:16:39;;;;;;;7.20;4.07;;;;;;;16.19;53.08;100670.69;5072815;28;20052;-63
2021/10/19 11:19:17;;;;;;;8.90;4.10;;;;;;;16.28;53.54;100665.47;5072793;28;20090;-62
2021/10/19 11:21:55;;;;;;;7.45;5.07;;;;;;;16.05;53.57;100661.34;5072820;28;20498;-62
2021/10/19 11:24:30;;;;;;;7.07;4.15;;;;;;;16.09;53.42;100663.03;5073585;28;20107;-62
2021/10/19 11:27:02;;;;;;;9.55;4.47;;;;;;;16.21;53.47;100650.91;5076378;28;20053;-63
2021/10/19 11:29:34;;;;;;;8.25;4.90;;;;;;;16.39;52.95;100648.16;5076260;28;20094;-62
2021/10/19 11:32:06;;;;;;;8.38;4.63;;;;;;;16.48;52.65;100635.22;5076241;28;20057;-63
2021/10/19 11:34:36;;;;;;;7.45;4.45;;;;;;;16.48;52.89;100640.38;5076323;28;20049;-63
2021/10/19 11:37:06;;;;;;;7.13;4.25;;;;;;;16.48;53.17;100633.50;5076430;28;20039;-62
2021/10/19 11:39:35;;;;;;;6.55;4.35;;;;;;;16.47;52.87;100633.50;5075760;28;20425;-61
2021/10/19 11:42:05;;;;;;;8.65;4.72;;;;;;;16.46;52.73;100627.50;5083849;28;20128;-61
2021/10/19 11:44:38;;;;;;;7.80;4.63;;;;;;;16.65;52.89;100638.53;5075881;28;20052;-62
2021/10/19 11:47:12;;;;;;;8.88;4.85;;;;;;;16.74;52.33;100635.84;5076485;28;20055;-62
2021/10/19 11:49:42;;;;;;;7.00;4.20;;;;;;;16.70;51.83;100622.13;5076156;28;20371;-62